Details From HKMO - Mombasa Moi Intl
To HTDA - Mwalimu Julius K Nyerere Intl
Flight Number -
Tags Generated
Created
Modified
Stats Distance 172 nm / 319 km
Max Altitude 0 ft / 0 m
Waypoints 2
Social Downloads 1
Likes 0
Share VATSIM

Download

Looking for another format? Having issues loading an existing format? Contact us
Advertisement - Login to hide

Notes

Generated

Route

HKMO HTDA

ID Type Via Altitude Latitude Longitude Leg Dist Tot Dist Heading (true) Name
O HKMO APT - 0 ft / 0 m -4.02983˚ 39.59137˚ - 0 nm - -
O HTDA APT - 0 ft / 0 m -6.87359˚ 39.19790˚ 172 nm 172 nm 188° / 188° -

Altitude Profile

Advertisement - Login to hide

Weather


0- 5 10 15 20 25 30 35+ Temperature / ° C

Clouds and Precipitation
Forecast for 2017-05-27 18:00 UTC. Updated 23 minutes ago

Ground ~20,000 ft ~40,000 ft Winds

HKMO

Details ICAO HKMO (MBA)
Name MOMBASA MOI INTL
Region Kenya
Timezone Africa/Nairobi (UTC+3.0)
Stats Elevation 200 ft / 61 m (AMSL)
Location -4.030744° 39.596732°
Runways 2
Magnetic Variation 0.946° W

METAR

HKMO 271300Z 19009KT 9999 SCT022 BKN080 27/23 Q1012 NOSIG

Decode

TAF

TAF HKMO 271100Z 2712/2818 18010KT 9999 SCT023 BKN080 BECMG 2718/2721 18010KT FEW022 BECMG 2800/2806 21010KT SCT020 BKN080 BECMG 2809/2812 18010KT SCT024 BECMG 2815/2818 17005KT FEW022

Decode

Departure Runways

ID Width Length Bearing (true) Bearing (mag) Surface Threshold Offset Overrun Length
03 151 ft / 46 m 11,040 ft / 3,365 m 29.14° 30.09° Asphalt 2,503 ft / 763 m 197 ft / 60 m
15 118 ft / 36 m 4,492 ft / 1,369 m 150.47° 151.42° Asphalt 0 ft / 0 m 190 ft / 58 m
21 151 ft / 46 m 11,040 ft / 3,365 m 209.14° 210.09° Asphalt 0 ft / 0 m 197 ft / 60 m
33 118 ft / 36 m 4,492 ft / 1,369 m 330.47° 331.42° Asphalt 0 ft / 0 m 250 ft / 76 m

HTDA

Details ICAO HTDA (DAR)
Name MWALIMU JULIUS K NYERERE INTL
Region Tanzania
Timezone Africa/Dar_es_Salaam (UTC+3.0)
Stats Elevation 182 ft / 55 m (AMSL)
Location -6.875048° 39.204265°
Runways 2
Magnetic Variation 2.131° W

METAR

HTDA 271300Z 18006KT 9999 FEW017 BKN090 28/23 Q1013 NOSIG

Decode

TAF

HTDA 271100Z 2712/2818 22005KT 9999 SCT016 BKN080 TEMPO 2712/2716 SHRA BKN015 BECMG 2718/2721 00000KT SCT014 TEMPO 2803/2807 RA BKN012

Decode

Destination Runways

ID Width Length Bearing (true) Bearing (mag) Surface Threshold Offset Overrun Length
05 151 ft / 46 m 9,868 ft / 3,008 m 44.94° 47.07° Asphalt 0 ft / 0 m 197 ft / 60 m
14 98 ft / 30 m 3,303 ft / 1,007 m 135.15° 137.28° Asphalt 0 ft / 0 m 0 ft / 0 m
23 151 ft / 46 m 9,868 ft / 3,008 m 224.94° 227.07° Asphalt 0 ft / 0 m 197 ft / 60 m
32 98 ft / 30 m 3,303 ft / 1,007 m 315.15° 317.28° Asphalt 0 ft / 0 m 299 ft / 91 m

Approach Navaids

Runway Type Ident Frequency Range Bearing (true) Bearing (mag) Slope Elevation
05 Localiser DL 110.50 MHz 18 nm / 33 km 44.91° 47.04° - 54 ft / 16 m (AMSL)
05 Glidescope DL 110.50 MHz 10 nm / 19 km 44.94° 47.07° 3.00° 54 ft / 16 m (AMSL)

Popular Alternatives